Zeja, Russia
Current Conditions -  °F | °C
As of 2:00 PM on Saturday 29 Nov 2014 (Local Time) from UHBB Reporting Station
Clear Clear  
Wind Chill: -8°   Ceiling: Unl
Heat Index:   Visibility: 6mi
Dew Point:   Wind: 4mph
Humidity: 92%   Direction: 10°N
Pressure: 30.18"   Gusts: NA
Location:  53.75°N, 127.27°E
Report Text: UHBB 290500Z 01002MPS CAVOK M17/M18 Q1022 NOSIG RMK QFE749/099836410250
Loading
Personal Weather Stations






























Interactive Weather Map New forecast layout! Learn more

10-Day Weather Forecast

Advertisements
Track Severe Weather on mobile